createdAt,value
2023-03-18T00:04:35.186Z,-7.98
2023-03-18T00:09:38.270Z,-8.09
2023-03-18T00:14:41.195Z,-8.05
2023-03-18T00:19:44.010Z,-8.13
2023-03-18T00:24:46.764Z,-8.10
2023-03-18T00:29:49.974Z,-8.05
2023-03-18T00:34:53.504Z,-7.93
2023-03-18T00:39:58.025Z,-7.82
2023-03-18T00:45:01.387Z,-7.75
2023-03-18T00:50:05.392Z,-7.73
2023-03-18T00:55:08.774Z,-7.69
2023-03-18T01:00:12.013Z,-7.61
2023-03-18T01:05:15.094Z,-7.53
2023-03-18T01:10:17.738Z,-7.39
2023-03-18T01:15:22.242Z,-7.29
2023-03-18T01:20:25.820Z,-7.27
2023-03-18T01:25:30.614Z,-7.24
2023-03-18T01:30:35.829Z,-7.26
2023-03-18T01:35:41.546Z,-7.11
2023-03-18T01:40:45.612Z,-7.05
2023-03-18T01:45:54.746Z,-7.02
2023-03-18T01:51:05.766Z,-7.00
2023-03-18T01:56:09.499Z,-6.95
2023-03-18T02:01:21.418Z,-6.92
2023-03-18T02:06:25.759Z,-6.86
2023-03-18T02:11:43.637Z,-6.77
2023-03-18T02:16:55.377Z,-6.62
2023-03-18T02:22:10.094Z,-6.58
2023-03-18T02:27:20.339Z,-6.51
2023-03-18T02:32:29.103Z,-6.48
2023-03-18T02:37:31.924Z,-6.33
2023-03-18T02:42:35.609Z,-6.25
2023-03-18T02:47:41.764Z,-6.04
2023-03-18T02:52:44.643Z,-5.90
2023-03-18T02:57:47.715Z,-5.75
2023-03-18T03:02:51.178Z,-5.62
2023-03-18T03:07:54.222Z,-5.43
2023-03-18T03:12:58.003Z,-5.33
2023-03-18T03:18:00.801Z,-5.23
2023-03-18T03:23:07.835Z,-5.13
2023-03-18T03:28:12.438Z,-5.03
2023-03-18T03:33:16.036Z,-4.93
2023-03-18T03:38:18.861Z,-4.73
2023-03-18T03:43:21.724Z,-4.57
2023-03-18T03:48:24.558Z,-4.44
2023-03-18T03:53:27.278Z,-4.25
2023-03-18T03:58:30.147Z,-4.09
2023-03-18T04:03:32.987Z,-3.92
2023-03-18T04:08:36.669Z,-3.75
2023-03-18T04:13:39.486Z,-3.66
2023-03-18T04:18:42.287Z,-3.42
2023-03-18T04:23:45.324Z,-3.29
2023-03-18T04:28:48.184Z,-3.10
2023-03-18T04:33:52.213Z,-2.97
2023-03-18T04:38:55.662Z,-2.81
2023-03-18T04:43:59.769Z,-2.63
2023-03-18T04:49:12.329Z,-2.38
2023-03-18T04:54:16.202Z,-2.19
2023-03-18T04:59:19.450Z,-2.02
2023-03-18T05:04:24.226Z,-1.84
2023-03-18T05:09:28.831Z,-1.62
2023-03-18T05:14:32.200Z,-1.45
2023-03-18T05:19:36.071Z,-1.31
2023-03-18T05:24:47.287Z,-1.13
2023-03-18T05:29:50.569Z,-0.88
2023-03-18T05:34:58.837Z,-0.67
2023-03-18T05:40:04.649Z,-0.52
2023-03-18T05:45:08.195Z,-0.35
2023-03-18T05:50:31.798Z,-0.05
2023-03-18T05:55:36.162Z,0.18
2023-03-18T06:00:39.293Z,0.37
2023-03-18T06:05:42.513Z,0.55
2023-03-18T06:10:45.532Z,0.74
2023-03-18T06:15:49.288Z,0.99
2023-03-18T06:20:51.986Z,1.15
2023-03-18T06:25:54.712Z,1.36
2023-03-18T06:31:04.392Z,1.54
2023-03-18T06:36:08.560Z,1.68
2023-03-18T06:41:12.110Z,1.92
2023-03-18T06:46:24.385Z,2.10
2023-03-18T06:51:27.394Z,2.22
2023-03-18T06:56:30.985Z,2.40
2023-03-18T07:01:49.703Z,2.57
2023-03-18T07:06:55.239Z,2.73
2023-03-18T07:12:01.748Z,2.81
2023-03-18T07:17:04.564Z,2.94
2023-03-18T07:22:08.455Z,3.09
2023-03-18T07:27:13.752Z,3.23
2023-03-18T07:32:16.581Z,3.38
2023-03-18T07:37:19.357Z,3.73
2023-03-18T07:42:22.458Z,4.07
2023-03-18T07:47:26.215Z,4.28
2023-03-18T07:52:29.746Z,4.51
2023-03-18T07:57:32.798Z,4.63
2023-03-18T08:02:36.534Z,4.75
2023-03-18T08:07:39.624Z,4.92
2023-03-18T08:12:52.476Z,5.07
2023-03-18T08:17:56.332Z,5.13
2023-03-18T08:22:58.970Z,5.26
2023-03-18T08:28:01.708Z,5.38
2023-03-18T08:33:04.617Z,5.51
2023-03-18T08:38:07.553Z,5.50
2023-03-18T08:43:10.566Z,5.55
2023-03-18T08:48:13.629Z,5.66
2023-03-18T08:53:17.091Z,5.71
2023-03-18T08:58:19.898Z,5.82
2023-03-18T09:03:22.882Z,5.84
2023-03-18T09:08:26.032Z,5.90
2023-03-18T09:13:28.813Z,5.88
2023-03-18T09:18:32.970Z,5.91
2023-03-18T09:23:35.691Z,6.03
2023-03-18T09:28:38.410Z,6.04
2023-03-18T09:33:42.315Z,5.99
2023-03-18T09:38:45.120Z,5.85
2023-03-18T09:43:59.356Z,5.82
2023-03-18T09:49:23.977Z,5.90
2023-03-18T09:54:32.663Z,5.95
2023-03-18T09:59:39.967Z,5.93
2023-03-18T10:04:46.976Z,5.94
2023-03-18T10:09:59.845Z,5.91
2023-03-18T10:15:28.161Z,5.74
2023-03-18T10:20:36.951Z,5.75
2023-03-18T10:25:43.363Z,5.67
2023-03-18T10:31:07.582Z,5.58
2023-03-18T10:36:17.244Z,5.42
2023-03-18T10:41:29.784Z,5.45
2023-03-18T10:46:34.320Z,5.50
2023-03-18T10:52:00.007Z,5.34
2023-03-18T10:57:02.917Z,5.17
2023-03-18T11:02:14.467Z,5.07
2023-03-18T11:07:20.458Z,5.01
2023-03-18T11:12:30.177Z,4.89
2023-03-18T11:17:35.694Z,4.70
2023-03-18T11:22:38.184Z,4.56
2023-03-18T11:27:48.552Z,4.31
2023-03-18T11:32:59.415Z,4.02
2023-03-18T11:38:07.271Z,3.85
2023-03-18T11:43:23.294Z,3.63
2023-03-18T11:48:37.225Z,3.70
2023-03-18T11:53:51.600Z,3.63
2023-03-18T11:59:13.214Z,3.56
2023-03-18T12:04:49.525Z,3.24
2023-03-18T12:10:26.599Z,2.87
2023-03-18T12:15:55.348Z,2.65
2023-03-18T12:21:08.095Z,2.37
2023-03-18T12:26:26.137Z,2.25
2023-03-18T12:31:44.169Z,2.31
2023-03-18T12:37:15.808Z,2.19
2023-03-18T12:42:27.482Z,2.10
2023-03-18T12:47:45.210Z,1.94
2023-03-18T12:53:19.067Z,1.73
2023-03-18T12:58:29.352Z,1.20
2023-03-18T13:03:40.692Z,1.02
2023-03-18T13:08:54.562Z,0.74
2023-03-18T13:14:03.296Z,0.68
2023-03-18T13:19:08.696Z,0.93
2023-03-18T13:24:25.831Z,1.04
2023-03-18T13:29:47.849Z,1.00
2023-03-18T13:35:05.231Z,1.06
2023-03-18T13:40:33.059Z,0.89
2023-03-18T13:45:40.754Z,0.64
2023-03-18T13:50:47.959Z,0.45
2023-03-18T13:56:02.463Z,0.06
2023-03-18T14:01:29.731Z,-0.04
2023-03-18T14:06:35.647Z,-0.15
2023-03-18T14:11:45.510Z,-0.23
2023-03-18T14:16:52.759Z,-0.16
2023-03-18T14:22:09.259Z,-0.23
2023-03-18T14:27:18.600Z,-0.42
2023-03-18T14:32:38.438Z,-0.41
2023-03-18T14:38:02.941Z,-0.49
2023-03-18T14:43:35.223Z,-0.54
2023-03-18T14:48:37.946Z,-0.56
2023-03-18T14:53:47.539Z,-0.64
2023-03-18T14:58:55.641Z,-0.76
2023-03-18T15:03:58.472Z,-0.87
2023-03-18T15:09:02.595Z,-1.06
2023-03-18T15:14:18.763Z,-1.19
2023-03-18T15:19:22.782Z,-1.31
2023-03-18T15:24:27.104Z,-1.39
2023-03-18T15:29:33.893Z,-1.52
2023-03-18T15:34:39.061Z,-1.59
2023-03-18T15:39:42.083Z,-1.58
2023-03-18T15:44:46.592Z,-1.61
2023-03-18T15:49:56.216Z,-1.62
2023-03-18T15:54:58.910Z,-1.68
2023-03-18T16:00:02.572Z,-1.80
2023-03-18T16:05:20.239Z,-1.92
2023-03-18T16:10:26.405Z,-1.87
2023-03-18T16:15:30.033Z,-1.88
2023-03-18T16:20:33.616Z,-1.96
2023-03-18T16:25:36.541Z,-2.00
2023-03-18T16:30:41.131Z,-2.16
2023-03-18T16:35:44.325Z,-2.05
2023-03-18T16:40:47.353Z,-2.30
2023-03-18T16:45:51.514Z,-2.23
2023-03-18T16:50:56.797Z,-2.31
2023-03-18T16:56:02.641Z,-2.41
2023-03-18T17:01:08.592Z,-2.34
2023-03-18T17:06:11.631Z,-2.40
2023-03-18T17:11:18.628Z,-2.42
2023-03-18T17:16:21.820Z,-2.42
2023-03-18T17:21:28.754Z,-2.55
2023-03-18T17:26:31.512Z,-2.60
2023-03-18T17:31:35.518Z,-2.48
2023-03-18T17:36:38.261Z,-2.44
2023-03-18T17:41:41.531Z,-2.21
2023-03-18T17:46:44.452Z,-2.13
2023-03-18T17:51:49.185Z,-2.08
2023-03-18T17:56:53.185Z,-2.10
2023-03-18T18:01:55.914Z,-2.27
2023-03-18T18:06:59.651Z,-2.42
2023-03-18T18:12:02.903Z,-2.56
2023-03-18T18:17:14.139Z,-2.65
2023-03-18T18:22:22.401Z,-2.68
2023-03-18T18:27:25.051Z,-2.89
2023-03-18T18:32:27.787Z,-2.69
2023-03-18T18:37:30.490Z,-2.75
2023-03-18T18:42:33.960Z,-2.80
2023-03-18T18:47:37.805Z,-2.92
2023-03-18T18:52:40.556Z,-3.07
2023-03-18T18:57:43.441Z,-3.19
2023-03-18T19:02:48.723Z,-3.24
2023-03-18T19:07:51.860Z,-3.31
2023-03-18T19:12:54.619Z,-3.35
2023-03-18T19:17:57.373Z,-3.09
2023-03-18T19:23:00.203Z,-3.05
2023-03-18T19:28:02.911Z,-3.01
2023-03-18T19:33:14.533Z,-2.98
2023-03-18T19:38:20.823Z,-2.92
2023-03-18T19:43:24.622Z,-2.87
2023-03-18T19:48:29.229Z,-2.82
2023-03-18T19:53:32.060Z,-2.75
2023-03-18T19:58:34.869Z,-2.85
2023-03-18T20:03:37.615Z,-2.68
2023-03-18T20:08:40.743Z,-2.65
2023-03-18T20:13:44.273Z,-2.57
2023-03-18T20:18:47.294Z,-2.57
2023-03-18T20:23:51.267Z,-2.39
2023-03-18T20:28:56.418Z,-2.19
2023-03-18T20:33:59.128Z,-1.99
2023-03-18T20:39:01.894Z,-1.81
2023-03-18T20:44:05.038Z,-1.75
2023-03-18T20:49:07.827Z,-1.69
2023-03-18T20:54:25.856Z,-1.69
2023-03-18T20:59:28.590Z,-1.69
2023-03-18T21:04:31.654Z,-1.54
2023-03-18T21:09:34.537Z,-1.55
2023-03-18T21:14:37.659Z,-1.52
2023-03-18T21:19:40.871Z,-1.57
2023-03-18T21:24:43.701Z,-1.75
2023-03-18T21:29:48.639Z,-1.53
2023-03-18T21:34:52.574Z,-1.29
2023-03-18T21:39:55.349Z,-1.39
2023-03-18T21:44:58.089Z,-1.49
2023-03-18T21:50:01.193Z,-1.57
2023-03-18T21:55:05.707Z,-1.53
2023-03-18T22:00:09.528Z,-1.64
2023-03-18T22:05:24.966Z,-1.75
2023-03-18T22:10:27.885Z,-1.89
2023-03-18T22:15:39.152Z,-1.95
2023-03-18T22:20:42.951Z,-2.01
2023-03-18T22:25:47.921Z,-2.13
2023-03-18T22:30:56.175Z,-2.19
2023-03-18T22:35:59.430Z,-2.25
2023-03-18T22:41:02.148Z,-2.29
2023-03-18T22:46:08.092Z,-2.37
2023-03-18T22:51:25.713Z,-2.71
2023-03-18T22:56:28.537Z,-2.46
2023-03-18T23:01:32.069Z,-2.44
2023-03-18T23:06:34.862Z,-2.49
2023-03-18T23:11:37.644Z,-2.50
2023-03-18T23:16:40.383Z,-2.70
2023-03-18T23:21:43.188Z,-2.52
2023-03-18T23:26:45.957Z,-2.58
2023-03-18T23:31:48.758Z,-2.57
2023-03-18T23:36:51.591Z,-2.58
2023-03-18T23:41:54.348Z,-2.62
2023-03-18T23:46:57.057Z,-2.80
2023-03-18T23:52:05.031Z,-2.71
2023-03-18T23:57:09.360Z,-2.65
